sensor_id;sensor_type;location;lat;lon;timestamp;P1;durP1;ratioP1;P2;durP2;ratioP2
1701;SDS011;848;48.354;10.064;2023-06-14T00:01:07;4.95;;;4.05;;
1701;SDS011;848;48.354;10.064;2023-06-14T00:03:34;4.82;;;3.63;;
1701;SDS011;848;48.354;10.064;2023-06-14T00:06:03;5.65;;;4.28;;
1701;SDS011;848;48.354;10.064;2023-06-14T00:08:29;7.53;;;4.50;;
1701;SDS011;848;48.354;10.064;2023-06-14T00:10:56;4.65;;;4.03;;
1701;SDS011;848;48.354;10.064;2023-06-14T00:13:23;5.22;;;4.72;;
1701;SDS011;848;48.354;10.064;2023-06-14T00:15:50;8.85;;;4.93;;
1701;SDS011;848;48.354;10.064;2023-06-14T00:18:20;5.75;;;4.65;;
1701;SDS011;848;48.354;10.064;2023-06-14T00:20:49;5.38;;;4.72;;
1701;SDS011;848;48.354;10.064;2023-06-14T00:23:18;5.18;;;4.38;;
1701;SDS011;848;48.354;10.064;2023-06-14T00:25:45;5.57;;;4.15;;
1701;SDS011;848;48.354;10.064;2023-06-14T00:28:12;5.82;;;4.18;;
1701;SDS011;848;48.354;10.064;2023-06-14T00:30:39;5.53;;;5.03;;
1701;SDS011;848;48.354;10.064;2023-06-14T00:33:06;6.82;;;5.00;;
1701;SDS011;848;48.354;10.064;2023-06-14T00:35:33;5.80;;;4.65;;
1701;SDS011;848;48.354;10.064;2023-06-14T00:38:00;4.78;;;4.28;;
1701;SDS011;848;48.354;10.064;2023-06-14T00:40:28;8.15;;;5.13;;
1701;SDS011;848;48.354;10.064;2023-06-14T00:42:55;6.72;;;4.30;;
1701;SDS011;848;48.354;10.064;2023-06-14T00:45:22;5.82;;;5.20;;
1701;SDS011;848;48.354;10.064;2023-06-14T00:47:49;6.03;;;5.03;;
1701;SDS011;848;48.354;10.064;2023-06-14T00:50:18;7.00;;;4.97;;
1701;SDS011;848;48.354;10.064;2023-06-14T00:52:48;6.32;;;4.28;;
1701;SDS011;848;48.354;10.064;2023-06-14T00:55:15;7.07;;;4.63;;
1701;SDS011;848;48.354;10.064;2023-06-14T00:57:44;7.80;;;4.60;;
1701;SDS011;848;48.354;10.064;2023-06-14T01:00:11;6.40;;;4.97;;
1701;SDS011;848;48.354;10.064;2023-06-14T01:02:39;6.53;;;4.80;;
1701;SDS011;848;48.354;10.064;2023-06-14T01:05:07;5.05;;;4.55;;
1701;SDS011;848;48.354;10.064;2023-06-14T01:07:40;5.35;;;4.85;;
1701;SDS011;848;48.354;10.064;2023-06-14T01:13:05;4.57;;;4.13;;
1701;SDS011;848;48.354;10.064;2023-06-14T01:15:40;7.30;;;4.63;;
1701;SDS011;848;48.354;10.064;2023-06-14T01:18:09;9.05;;;5.10;;
1701;SDS011;848;48.354;10.064;2023-06-14T01:20:42;6.20;;;4.70;;
1701;SDS011;848;48.354;10.064;2023-06-14T01:23:15;6.65;;;4.80;;
1701;SDS011;848;48.354;10.064;2023-06-14T01:25:42;5.22;;;4.63;;
1701;SDS011;848;48.354;10.064;2023-06-14T01:28:10;5.35;;;4.85;;
1701;SDS011;848;48.354;10.064;2023-06-14T01:30:38;5.75;;;4.72;;
1701;SDS011;848;48.354;10.064;2023-06-14T01:33:10;4.85;;;4.35;;
1701;SDS011;848;48.354;10.064;2023-06-14T01:35:39;8.93;;;5.20;;
1701;SDS011;848;48.354;10.064;2023-06-14T01:38:07;6.60;;;5.00;;
1701;SDS011;848;48.354;10.064;2023-06-14T01:40:35;8.45;;;4.80;;
1701;SDS011;848;48.354;10.064;2023-06-14T01:43:03;6.50;;;5.05;;
1701;SDS011;848;48.354;10.064;2023-06-14T01:45:31;5.03;;;4.53;;
1701;SDS011;848;48.354;10.064;2023-06-14T01:50:05;6.38;;;4.50;;
1701;SDS011;848;48.354;10.064;2023-06-14T01:52:32;6.72;;;4.97;;
1701;SDS011;848;48.354;10.064;2023-06-14T01:54:59;5.70;;;4.75;;
1701;SDS011;848;48.354;10.064;2023-06-14T01:57:28;5.93;;;4.70;;
1701;SDS011;848;48.354;10.064;2023-06-14T01:59:54;5.55;;;4.95;;
1701;SDS011;848;48.354;10.064;2023-06-14T02:02:21;7.57;;;5.10;;
1701;SDS011;848;48.354;10.064;2023-06-14T02:04:48;5.70;;;4.90;;
1701;SDS011;848;48.354;10.064;2023-06-14T02:07:16;5.75;;;4.32;;
1701;SDS011;848;48.354;10.064;2023-06-14T02:09:43;6.18;;;4.38;;
1701;SDS011;848;48.354;10.064;2023-06-14T02:12:10;6.57;;;5.82;;
1701;SDS011;848;48.354;10.064;2023-06-14T02:14:37;5.07;;;4.57;;
1701;SDS011;848;48.354;10.064;2023-06-14T02:17:04;8.10;;;5.30;;
1701;SDS011;848;48.354;10.064;2023-06-14T02:19:31;5.57;;;4.80;;
1701;SDS011;848;48.354;10.064;2023-06-14T02:21:58;6.63;;;5.18;;
1701;SDS011;848;48.354;10.064;2023-06-14T02:24:27;6.35;;;4.97;;
1701;SDS011;848;48.354;10.064;2023-06-14T02:26:53;8.43;;;4.72;;
1701;SDS011;848;48.354;10.064;2023-06-14T02:29:20;5.40;;;4.90;;
1701;SDS011;848;48.354;10.064;2023-06-14T02:31:47;5.03;;;4.53;;
1701;SDS011;848;48.354;10.064;2023-06-14T02:34:14;5.13;;;4.63;;
1701;SDS011;848;48.354;10.064;2023-06-14T02:36:43;7.18;;;4.88;;
1701;SDS011;848;48.354;10.064;2023-06-14T02:39:10;6.10;;;4.25;;
1701;SDS011;848;48.354;10.064;2023-06-14T02:41:39;6.22;;;4.53;;
1701;SDS011;848;48.354;10.064;2023-06-14T02:44:06;7.43;;;4.75;;
1701;SDS011;848;48.354;10.064;2023-06-14T02:46:33;5.80;;;5.25;;
1701;SDS011;848;48.354;10.064;2023-06-14T02:49:00;6.18;;;5.40;;
1701;SDS011;848;48.354;10.064;2023-06-14T02:51:27;7.32;;;5.85;;
1701;SDS011;848;48.354;10.064;2023-06-14T02:53:54;8.48;;;5.47;;
1701;SDS011;848;48.354;10.064;2023-06-14T02:56:21;5.90;;;5.30;;
1701;SDS011;848;48.354;10.064;2023-06-14T02:58:49;4.97;;;4.15;;
1701;SDS011;848;48.354;10.064;2023-06-14T03:01:16;8.18;;;5.40;;
1701;SDS011;848;48.354;10.064;2023-06-14T03:03:45;9.10;;;5.07;;
1701;SDS011;848;48.354;10.064;2023-06-14T03:06:12;8.00;;;5.07;;
1701;SDS011;848;48.354;10.064;2023-06-14T03:08:41;5.72;;;5.13;;
1701;SDS011;848;48.354;10.064;2023-06-14T03:11:09;5.93;;;5.30;;
1701;SDS011;848;48.354;10.064;2023-06-14T03:13:35;12.68;;;5.20;;
1701;SDS011;848;48.354;10.064;2023-06-14T03:16:05;6.55;;;4.68;;
1701;SDS011;848;48.354;10.064;2023-06-14T03:18:32;5.95;;;5.35;;
1701;SDS011;848;48.354;10.064;2023-06-14T03:21:00;5.45;;;4.95;;
1701;SDS011;848;48.354;10.064;2023-06-14T03:23:27;6.75;;;5.45;;
1701;SDS011;848;48.354;10.064;2023-06-14T03:25:54;5.55;;;5.05;;
1701;SDS011;848;48.354;10.064;2023-06-14T03:28:22;7.50;;;5.60;;
1701;SDS011;848;48.354;10.064;2023-06-14T03:30:49;6.45;;;5.80;;
1701;SDS011;848;48.354;10.064;2023-06-14T03:33:17;6.07;;;5.53;;
1701;SDS011;848;48.354;10.064;2023-06-14T03:35:46;5.22;;;4.72;;
1701;SDS011;848;48.354;10.064;2023-06-14T03:38:13;6.85;;;5.35;;
1701;SDS011;848;48.354;10.064;2023-06-14T03:40:40;5.57;;;5.07;;
1701;SDS011;848;48.354;10.064;2023-06-14T03:43:06;6.78;;;4.75;;
1701;SDS011;848;48.354;10.064;2023-06-14T03:45:33;6.60;;;4.85;;
1701;SDS011;848;48.354;10.064;2023-06-14T03:48:00;7.95;;;5.50;;
1701;SDS011;848;48.354;10.064;2023-06-14T03:50:29;6.13;;;4.85;;
1701;SDS011;848;48.354;10.064;2023-06-14T03:52:57;5.70;;;5.10;;
1701;SDS011;848;48.354;10.064;2023-06-14T03:55:24;7.03;;;5.18;;
1701;SDS011;848;48.354;10.064;2023-06-14T03:57:52;7.43;;;5.03;;
1701;SDS011;848;48.354;10.064;2023-06-14T04:00:19;5.70;;;5.15;;
1701;SDS011;848;48.354;10.064;2023-06-14T04:02:46;6.97;;;5.63;;
1701;SDS011;848;48.354;10.064;2023-06-14T04:05:13;7.80;;;5.60;;
1701;SDS011;848;48.354;10.064;2023-06-14T04:07:42;6.93;;;5.82;;
1701;SDS011;848;48.354;10.064;2023-06-14T04:10:11;5.75;;;5.15;;
1701;SDS011;848;48.354;10.064;2023-06-14T04:12:38;5.72;;;5.13;;
1701;SDS011;848;48.354;10.064;2023-06-14T04:15:06;8.20;;;6.03;;
1701;SDS011;848;48.354;10.064;2023-06-14T04:17:33;7.43;;;6.20;;
1701;SDS011;848;48.354;10.064;2023-06-14T04:20:01;8.85;;;5.32;;
1701;SDS011;848;48.354;10.064;2023-06-14T04:22:29;6.72;;;5.53;;
1701;SDS011;848;48.354;10.064;2023-06-14T04:24:58;6.18;;;5.57;;
1701;SDS011;848;48.354;10.064;2023-06-14T04:27:25;7.30;;;6.53;;
1701;SDS011;848;48.354;10.064;2023-06-14T04:29:53;7.45;;;5.97;;
1701;SDS011;848;48.354;10.064;2023-06-14T04:32:23;6.15;;;5.55;;
1701;SDS011;848;48.354;10.064;2023-06-14T04:34:50;7.40;;;5.57;;
1701;SDS011;848;48.354;10.064;2023-06-14T04:37:18;10.27;;;5.80;;
1701;SDS011;848;48.354;10.064;2023-06-14T04:39:47;9.20;;;5.40;;
1701;SDS011;848;48.354;10.064;2023-06-14T04:42:15;6.15;;;5.55;;
1701;SDS011;848;48.354;10.064;2023-06-14T04:44:45;5.97;;;5.38;;
1701;SDS011;848;48.354;10.064;2023-06-14T04:47:13;10.65;;;6.13;;
1701;SDS011;848;48.354;10.064;2023-06-14T04:49:41;8.15;;;6.22;;
1701;SDS011;848;48.354;10.064;2023-06-14T04:52:08;5.78;;;5.28;;
1701;SDS011;848;48.354;10.064;2023-06-14T04:54:35;7.47;;;5.95;;
1701;SDS011;848;48.354;10.064;2023-06-14T04:57:03;8.80;;;5.57;;
1701;SDS011;848;48.354;10.064;2023-06-14T04:59:32;8.45;;;5.65;;
1701;SDS011;848;48.354;10.064;2023-06-14T05:02:00;8.20;;;5.55;;
1701;SDS011;848;48.354;10.064;2023-06-14T05:04:28;7.22;;;5.32;;
1701;SDS011;848;48.354;10.064;2023-06-14T05:06:54;7.10;;;5.82;;
1701;SDS011;848;48.354;10.064;2023-06-14T05:09:21;6.40;;;5.40;;
1701;SDS011;848;48.354;10.064;2023-06-14T05:11:48;8.60;;;5.50;;
1701;SDS011;848;48.354;10.064;2023-06-14T05:14:15;5.55;;;5.03;;
1701;SDS011;848;48.354;10.064;2023-06-14T05:16:44;7.60;;;5.85;;
1701;SDS011;848;48.354;10.064;2023-06-14T05:19:13;11.15;;;5.55;;
1701;SDS011;848;48.354;10.064;2023-06-14T05:21:42;30.83;;;9.55;;
1701;SDS011;848;48.354;10.064;2023-06-14T05:24:09;6.10;;;5.32;;
1701;SDS011;848;48.354;10.064;2023-06-14T05:26:36;7.10;;;4.90;;
1701;SDS011;848;48.354;10.064;2023-06-14T05:29:03;10.23;;;5.00;;
1701;SDS011;848;48.354;10.064;2023-06-14T05:31:30;5.72;;;5.13;;
1701;SDS011;848;48.354;10.064;2023-06-14T05:33:59;5.50;;;4.75;;
1701;SDS011;848;48.354;10.064;2023-06-14T05:36:26;7.18;;;5.65;;
1701;SDS011;848;48.354;10.064;2023-06-14T05:38:53;7.70;;;5.07;;
1701;SDS011;848;48.354;10.064;2023-06-14T05:41:23;11.68;;;5.68;;
1701;SDS011;848;48.354;10.064;2023-06-14T05:43:50;5.47;;;4.97;;
1701;SDS011;848;48.354;10.064;2023-06-14T05:46:17;10.88;;;6.05;;
1701;SDS011;848;48.354;10.064;2023-06-14T05:48:47;6.03;;;5.40;;
1701;SDS011;848;48.354;10.064;2023-06-14T05:51:15;7.05;;;5.32;;
1701;SDS011;848;48.354;10.064;2023-06-14T05:53:44;5.90;;;5.40;;
1701;SDS011;848;48.354;10.064;2023-06-14T05:56:11;5.93;;;5.40;;
1701;SDS011;848;48.354;10.064;2023-06-14T05:58:38;6.53;;;5.75;;
1701;SDS011;848;48.354;10.064;2023-06-14T06:01:05;10.45;;;6.28;;
1701;SDS011;848;48.354;10.064;2023-06-14T06:03:32;6.00;;;5.40;;
1701;SDS011;848;48.354;10.064;2023-06-14T06:05:59;5.78;;;5.03;;
1701;SDS011;848;48.354;10.064;2023-06-14T06:08:29;8.13;;;5.55;;
1701;SDS011;848;48.354;10.064;2023-06-14T06:10:56;8.10;;;6.30;;
1701;SDS011;848;48.354;10.064;2023-06-14T06:13:23;6.93;;;5.53;;
1701;SDS011;848;48.354;10.064;2023-06-14T06:15:50;6.28;;;5.68;;
1701;SDS011;848;48.354;10.064;2023-06-14T06:18:17;8.50;;;5.65;;
1701;SDS011;848;48.354;10.064;2023-06-14T06:20:44;5.93;;;5.32;;
1701;SDS011;848;48.354;10.064;2023-06-14T06:23:12;5.95;;;5.45;;
1701;SDS011;848;48.354;10.064;2023-06-14T06:25:40;8.55;;;5.45;;
1701;SDS011;848;48.354;10.064;2023-06-14T06:28:08;6.87;;;6.17;;
1701;SDS011;848;48.354;10.064;2023-06-14T06:30:36;6.43;;;5.33;;
1701;SDS011;848;48.354;10.064;2023-06-14T06:33:02;10.30;;;6.17;;
1701;SDS011;848;48.354;10.064;2023-06-14T06:35:29;7.90;;;5.70;;
1701;SDS011;848;48.354;10.064;2023-06-14T06:37:58;6.50;;;5.80;;
1701;SDS011;848;48.354;10.064;2023-06-14T06:40:25;9.80;;;6.80;;
1701;SDS011;848;48.354;10.064;2023-06-14T06:42:54;10.73;;;6.27;;
1701;SDS011;848;48.354;10.064;2023-06-14T06:45:21;6.00;;;5.40;;
1701;SDS011;848;48.354;10.064;2023-06-14T06:47:48;6.20;;;5.60;;
1701;SDS011;848;48.354;10.064;2023-06-14T06:50:15;7.33;;;5.33;;
1701;SDS011;848;48.354;10.064;2023-06-14T06:52:44;5.67;;;5.13;;
1701;SDS011;848;48.354;10.064;2023-06-14T06:55:11;6.43;;;5.73;;
1701;SDS011;848;48.354;10.064;2023-06-14T06:57:38;9.53;;;5.57;;
1701;SDS011;848;48.354;10.064;2023-06-14T07:00:07;5.40;;;4.90;;
1701;SDS011;848;48.354;10.064;2023-06-14T07:02:35;6.83;;;6.13;;
1701;SDS011;848;48.354;10.064;2023-06-14T07:05:03;10.30;;;6.40;;
1701;SDS011;848;48.354;10.064;2023-06-14T07:07:31;7.87;;;5.33;;
1701;SDS011;848;48.354;10.064;2023-06-14T07:09:59;8.00;;;5.20;;
1701;SDS011;848;48.354;10.064;2023-06-14T07:12:29;7.00;;;5.57;;
1701;SDS011;848;48.354;10.064;2023-06-14T07:14:56;7.30;;;6.60;;
1701;SDS011;848;48.354;10.064;2023-06-14T07:17:25;7.20;;;5.90;;
1701;SDS011;848;48.354;10.064;2023-06-14T07:19:54;7.07;;;6.47;;
1701;SDS011;848;48.354;10.064;2023-06-14T07:22:21;7.40;;;5.50;;
1701;SDS011;848;48.354;10.064;2023-06-14T07:24:48;5.60;;;5.07;;
1701;SDS011;848;48.354;10.064;2023-06-14T07:27:15;8.40;;;5.30;;
1701;SDS011;848;48.354;10.064;2023-06-14T07:29:42;8.30;;;5.97;;
1701;SDS011;848;48.354;10.064;2023-06-14T07:32:09;6.83;;;5.67;;
1701;SDS011;848;48.354;10.064;2023-06-14T07:34:44;8.00;;;6.00;;
1701;SDS011;848;48.354;10.064;2023-06-14T07:37:13;6.63;;;5.33;;
1701;SDS011;848;48.354;10.064;2023-06-14T07:39:40;6.00;;;5.50;;
1701;SDS011;848;48.354;10.064;2023-06-14T07:42:07;6.80;;;4.83;;
1701;SDS011;848;48.354;10.064;2023-06-14T07:44:35;5.50;;;4.97;;
1701;SDS011;848;48.354;10.064;2023-06-14T07:47:03;6.63;;;4.97;;
1701;SDS011;848;48.354;10.064;2023-06-14T07:49:32;7.33;;;5.67;;
1701;SDS011;848;48.354;10.064;2023-06-14T07:52:03;9.07;;;5.17;;
1701;SDS011;848;48.354;10.064;2023-06-14T07:54:37;5.20;;;4.70;;
1701;SDS011;848;48.354;10.064;2023-06-14T07:57:04;5.27;;;4.77;;
1701;SDS011;848;48.354;10.064;2023-06-14T07:59:31;5.97;;;5.37;;
1701;SDS011;848;48.354;10.064;2023-06-14T08:01:58;6.27;;;5.67;;
1701;SDS011;848;48.354;10.064;2023-06-14T08:04:25;6.07;;;5.47;;
1701;SDS011;848;48.354;10.064;2023-06-14T08:06:52;8.30;;;4.87;;
1701;SDS011;848;48.354;10.064;2023-06-14T08:09:20;4.73;;;4.20;;
1701;SDS011;848;48.354;10.064;2023-06-14T08:11:48;7.73;;;5.30;;
1701;SDS011;848;48.354;10.064;2023-06-14T08:14:16;8.30;;;5.20;;
1701;SDS011;848;48.354;10.064;2023-06-14T08:16:43;6.50;;;5.07;;
1701;SDS011;848;48.354;10.064;2023-06-14T08:19:10;5.60;;;4.37;;
1701;SDS011;848;48.354;10.064;2023-06-14T08:21:37;12.93;;;5.30;;
1701;SDS011;848;48.354;10.064;2023-06-14T08:24:05;5.90;;;5.00;;
1701;SDS011;848;48.354;10.064;2023-06-14T08:26:33;6.10;;;5.40;;
1701;SDS011;848;48.354;10.064;2023-06-14T08:29:01;5.67;;;4.50;;
1701;SDS011;848;48.354;10.064;2023-06-14T08:31:28;4.50;;;4.20;;
1701;SDS011;848;48.354;10.064;2023-06-14T08:33:56;6.63;;;4.27;;
1701;SDS011;848;48.354;10.064;2023-06-14T08:36:23;5.43;;;4.63;;
1701;SDS011;848;48.354;10.064;2023-06-14T08:38:50;5.83;;;4.60;;
1701;SDS011;848;48.354;10.064;2023-06-14T08:41:20;4.83;;;4.43;;
1701;SDS011;848;48.354;10.064;2023-06-14T08:43:50;6.10;;;5.33;;
1701;SDS011;848;48.354;10.064;2023-06-14T08:46:18;5.23;;;4.73;;
1701;SDS011;848;48.354;10.064;2023-06-14T08:48:46;6.20;;;4.60;;
1701;SDS011;848;48.354;10.064;2023-06-14T08:51:15;4.57;;;4.17;;
1701;SDS011;848;48.354;10.064;2023-06-14T08:53:46;4.70;;;4.20;;
1701;SDS011;848;48.354;10.064;2023-06-14T08:56:22;6.03;;;4.33;;
1701;SDS011;848;48.354;10.064;2023-06-14T08:58:52;7.53;;;4.77;;
1701;SDS011;848;48.354;10.064;2023-06-14T09:01:20;4.73;;;4.30;;
1701;SDS011;848;48.354;10.064;2023-06-14T09:03:48;6.00;;;4.47;;
1701;SDS011;848;48.354;10.064;2023-06-14T09:06:16;8.30;;;4.80;;
1701;SDS011;848;48.354;10.064;2023-06-14T09:08:43;4.80;;;4.30;;
1701;SDS011;848;48.354;10.064;2023-06-14T09:11:12;6.47;;;4.90;;
1701;SDS011;848;48.354;10.064;2023-06-14T09:13:40;6.30;;;5.20;;
1701;SDS011;848;48.354;10.064;2023-06-14T09:16:09;4.47;;;3.90;;
1701;SDS011;848;48.354;10.064;2023-06-14T09:18:36;6.87;;;4.57;;
1701;SDS011;848;48.354;10.064;2023-06-14T09:21:05;10.20;;;4.77;;
1701;SDS011;848;48.354;10.064;2023-06-14T09:23:33;8.23;;;4.67;;
1701;SDS011;848;48.354;10.064;2023-06-14T09:26:06;7.83;;;4.73;;
1701;SDS011;848;48.354;10.064;2023-06-14T09:28:34;4.87;;;3.90;;
1701;SDS011;848;48.354;10.064;2023-06-14T09:31:02;4.10;;;3.70;;
1701;SDS011;848;48.354;10.064;2023-06-14T09:33:31;6.73;;;3.63;;
1701;SDS011;848;48.354;10.064;2023-06-14T09:35:58;4.67;;;4.27;;
1701;SDS011;848;48.354;10.064;2023-06-14T09:38:25;7.73;;;4.23;;
1701;SDS011;848;48.354;10.064;2023-06-14T09:40:52;5.93;;;3.87;;
1701;SDS011;848;48.354;10.064;2023-06-14T09:43:21;6.03;;;4.97;;
1701;SDS011;848;48.354;10.064;2023-06-14T09:45:52;7.70;;;4.53;;
1701;SDS011;848;48.354;10.064;2023-06-14T09:48:20;5.83;;;4.20;;
1701;SDS011;848;48.354;10.064;2023-06-14T09:50:49;7.57;;;4.57;;
1701;SDS011;848;48.354;10.064;2023-06-14T09:53:16;6.87;;;4.50;;
1701;SDS011;848;48.354;10.064;2023-06-14T09:55:49;4.70;;;4.20;;
1701;SDS011;848;48.354;10.064;2023-06-14T09:58:17;5.40;;;4.90;;
1701;SDS011;848;48.354;10.064;2023-06-14T10:00:49;6.30;;;5.00;;
1701;SDS011;848;48.354;10.064;2023-06-14T10:03:19;4.47;;;3.60;;
1701;SDS011;848;48.354;10.064;2023-06-14T10:05:51;6.30;;;4.07;;
1701;SDS011;848;48.354;10.064;2023-06-14T10:08:22;4.80;;;3.90;;
1701;SDS011;848;48.354;10.064;2023-06-14T10:10:51;4.37;;;3.97;;
1701;SDS011;848;48.354;10.064;2023-06-14T10:13:19;3.97;;;3.57;;
1701;SDS011;848;48.354;10.064;2023-06-14T10:15:50;4.70;;;4.07;;
1701;SDS011;848;48.354;10.064;2023-06-14T10:18:25;4.27;;;3.80;;
1701;SDS011;848;48.354;10.064;2023-06-14T10:21:02;3.57;;;3.27;;
1701;SDS011;848;48.354;10.064;2023-06-14T10:23:35;4.77;;;3.80;;
1701;SDS011;848;48.354;10.064;2023-06-14T10:26:06;9.00;;;4.50;;
1701;SDS011;848;48.354;10.064;2023-06-14T10:28:34;8.07;;;4.53;;
1701;SDS011;848;48.354;10.064;2023-06-14T10:31:05;4.93;;;4.43;;
1701;SDS011;848;48.354;10.064;2023-06-14T10:33:33;7.10;;;4.00;;
1701;SDS011;848;48.354;10.064;2023-06-14T10:36:24;4.13;;;3.73;;
1701;SDS011;848;48.354;10.064;2023-06-14T10:39:00;5.17;;;4.67;;
1701;SDS011;848;48.354;10.064;2023-06-14T10:41:31;10.83;;;4.10;;
1701;SDS011;848;48.354;10.064;2023-06-14T10:47:25;5.57;;;4.37;;
1701;SDS011;848;48.354;10.064;2023-06-14T10:49:54;4.33;;;3.90;;
1701;SDS011;848;48.354;10.064;2023-06-14T10:52:24;6.27;;;4.57;;
1701;SDS011;848;48.354;10.064;2023-06-14T10:55:03;7.10;;;4.50;;
1701;SDS011;848;48.354;10.064;2023-06-14T10:57:34;5.93;;;4.20;;
1701;SDS011;848;48.354;10.064;2023-06-14T11:00:02;4.17;;;3.77;;
1701;SDS011;848;48.354;10.064;2023-06-14T11:05:49;6.83;;;4.83;;
1701;SDS011;848;48.354;10.064;2023-06-14T11:08:37;6.57;;;4.83;;
1701;SDS011;848;48.354;10.064;2023-06-14T11:11:34;4.77;;;4.30;;
1701;SDS011;848;48.354;10.064;2023-06-14T11:14:03;5.20;;;4.27;;
1701;SDS011;848;48.354;10.064;2023-06-14T11:16:31;6.13;;;4.10;;
1701;SDS011;848;48.354;10.064;2023-06-14T11:19:00;9.30;;;4.20;;
1701;SDS011;848;48.354;10.064;2023-06-14T11:21:28;5.60;;;4.73;;
1701;SDS011;848;48.354;10.064;2023-06-14T11:23:57;4.13;;;3.83;;
1701;SDS011;848;48.354;10.064;2023-06-14T11:26:25;5.60;;;4.23;;
1701;SDS011;848;48.354;10.064;2023-06-14T11:28:55;4.63;;;4.23;;
1701;SDS011;848;48.354;10.064;2023-06-14T11:31:23;6.33;;;4.13;;
1701;SDS011;848;48.354;10.064;2023-06-14T11:33:50;5.40;;;3.93;;
1701;SDS011;848;48.354;10.064;2023-06-14T11:36:19;6.03;;;4.40;;
1701;SDS011;848;48.354;10.064;2023-06-14T11:38:46;7.37;;;4.70;;
1701;SDS011;848;48.354;10.064;2023-06-14T11:41:15;8.27;;;4.40;;
1701;SDS011;848;48.354;10.064;2023-06-14T11:43:41;5.00;;;4.20;;
1701;SDS011;848;48.354;10.064;2023-06-14T11:46:14;7.13;;;4.57;;
1701;SDS011;848;48.354;10.064;2023-06-14T11:48:43;5.93;;;4.30;;
1701;SDS011;848;48.354;10.064;2023-06-14T11:51:10;5.17;;;4.67;;
1701;SDS011;848;48.354;10.064;2023-06-14T11:53:37;4.90;;;4.17;;
1701;SDS011;848;48.354;10.064;2023-06-14T11:56:04;10.13;;;5.07;;
1701;SDS011;848;48.354;10.064;2023-06-14T11:58:33;7.17;;;4.60;;
1701;SDS011;848;48.354;10.064;2023-06-14T12:01:00;5.07;;;4.40;;
1701;SDS011;848;48.354;10.064;2023-06-14T12:03:29;5.27;;;4.30;;
1701;SDS011;848;48.354;10.064;2023-06-14T12:06:02;3.80;;;3.50;;
1701;SDS011;848;48.354;10.064;2023-06-14T12:08:33;5.00;;;4.57;;
1701;SDS011;848;48.354;10.064;2023-06-14T12:11:04;5.97;;;4.50;;
1701;SDS011;848;48.354;10.064;2023-06-14T12:13:34;5.73;;;4.10;;
1701;SDS011;848;48.354;10.064;2023-06-14T12:16:04;8.87;;;4.00;;
1701;SDS011;848;48.354;10.064;2023-06-14T12:18:33;6.27;;;4.13;;
1701;SDS011;848;48.354;10.064;2023-06-14T12:21:01;6.80;;;4.43;;
1701;SDS011;848;48.354;10.064;2023-06-14T12:23:39;6.20;;;4.10;;
1701;SDS011;848;48.354;10.064;2023-06-14T12:26:08;9.27;;;4.30;;
1701;SDS011;848;48.354;10.064;2023-06-14T12:28:37;5.07;;;4.57;;
1701;SDS011;848;48.354;10.064;2023-06-14T12:31:06;4.10;;;3.80;;
1701;SDS011;848;48.354;10.064;2023-06-14T12:33:32;6.17;;;5.43;;
1701;SDS011;848;48.354;10.064;2023-06-14T12:35:59;6.60;;;4.63;;
1701;SDS011;848;48.354;10.064;2023-06-14T12:38:29;6.37;;;4.60;;
1701;SDS011;848;48.354;10.064;2023-06-14T12:40:56;6.20;;;3.93;;
1701;SDS011;848;48.354;10.064;2023-06-14T12:43:23;4.73;;;4.17;;
1701;SDS011;848;48.354;10.064;2023-06-14T12:45:51;4.97;;;4.37;;
1701;SDS011;848;48.354;10.064;2023-06-14T12:48:19;9.20;;;4.60;;
1701;SDS011;848;48.354;10.064;2023-06-14T12:50:46;7.57;;;4.30;;
1701;SDS011;848;48.354;10.064;2023-06-14T12:53:13;11.77;;;4.07;;
1701;SDS011;848;48.354;10.064;2023-06-14T12:55:40;4.73;;;4.23;;
1701;SDS011;848;48.354;10.064;2023-06-14T12:58:07;7.10;;;4.40;;
1701;SDS011;848;48.354;10.064;2023-06-14T13:00:34;5.53;;;4.50;;
1701;SDS011;848;48.354;10.064;2023-06-14T13:03:03;4.87;;;4.43;;
1701;SDS011;848;48.354;10.064;2023-06-14T13:05:30;6.77;;;4.90;;
1701;SDS011;848;48.354;10.064;2023-06-14T13:07:58;6.20;;;4.57;;
1701;SDS011;848;48.354;10.064;2023-06-14T13:10:25;5.07;;;3.50;;
1701;SDS011;848;48.354;10.064;2023-06-14T13:12:52;7.30;;;4.47;;
1701;SDS011;848;48.354;10.064;2023-06-14T13:15:19;5.53;;;5.03;;
1701;SDS011;848;48.354;10.064;2023-06-14T13:17:46;5.13;;;4.63;;
1701;SDS011;848;48.354;10.064;2023-06-14T13:20:15;5.03;;;4.23;;
1701;SDS011;848;48.354;10.064;2023-06-14T13:22:42;5.63;;;4.27;;
1701;SDS011;848;48.354;10.064;2023-06-14T13:25:09;4.47;;;4.10;;
1701;SDS011;848;48.354;10.064;2023-06-14T13:27:36;5.07;;;4.60;;
1701;SDS011;848;48.354;10.064;2023-06-14T13:30:03;4.50;;;4.10;;
1701;SDS011;848;48.354;10.064;2023-06-14T13:32:31;4.60;;;3.80;;
1701;SDS011;848;48.354;10.064;2023-06-14T13:34:58;4.57;;;4.17;;
1701;SDS011;848;48.354;10.064;2023-06-14T13:37:26;5.30;;;4.50;;
1701;SDS011;848;48.354;10.064;2023-06-14T13:39:53;5.03;;;4.30;;
1701;SDS011;848;48.354;10.064;2023-06-14T13:42:20;5.03;;;4.20;;
1701;SDS011;848;48.354;10.064;2023-06-14T13:44:47;6.40;;;4.80;;
1701;SDS011;848;48.354;10.064;2023-06-14T13:47:16;5.77;;;4.00;;
1701;SDS011;848;48.354;10.064;2023-06-14T13:49:43;4.33;;;3.87;;
1701;SDS011;848;48.354;10.064;2023-06-14T13:52:10;7.83;;;4.73;;
1701;SDS011;848;48.354;10.064;2023-06-14T13:54:40;7.33;;;4.53;;
1701;SDS011;848;48.354;10.064;2023-06-14T13:57:07;5.83;;;4.37;;
1701;SDS011;848;48.354;10.064;2023-06-14T13:59:34;7.33;;;4.70;;
1701;SDS011;848;48.354;10.064;2023-06-14T14:02:01;6.40;;;4.40;;
1701;SDS011;848;48.354;10.064;2023-06-14T14:04:28;4.30;;;3.90;;
1701;SDS011;848;48.354;10.064;2023-06-14T14:06:55;4.77;;;4.30;;
1701;SDS011;848;48.354;10.064;2023-06-14T14:09:22;5.47;;;3.73;;
1701;SDS011;848;48.354;10.064;2023-06-14T14:11:50;9.93;;;4.00;;
1701;SDS011;848;48.354;10.064;2023-06-14T14:14:17;10.60;;;4.47;;
1701;SDS011;848;48.354;10.064;2023-06-14T14:16:44;4.40;;;4.00;;
1701;SDS011;848;48.354;10.064;2023-06-14T14:19:11;5.43;;;4.30;;
1701;SDS011;848;48.354;10.064;2023-06-14T14:21:38;4.33;;;3.93;;
1701;SDS011;848;48.354;10.064;2023-06-14T14:24:05;5.10;;;3.80;;
1701;SDS011;848;48.354;10.064;2023-06-14T14:26:32;4.60;;;3.57;;
1701;SDS011;848;48.354;10.064;2023-06-14T14:29:01;6.20;;;4.33;;
1701;SDS011;848;48.354;10.064;2023-06-14T14:31:28;4.47;;;4.07;;
1701;SDS011;848;48.354;10.064;2023-06-14T14:33:56;7.13;;;4.47;;
1701;SDS011;848;48.354;10.064;2023-06-14T14:36:23;6.30;;;4.73;;
1701;SDS011;848;48.354;10.064;2023-06-14T14:38:50;5.33;;;4.20;;
1701;SDS011;848;48.354;10.064;2023-06-14T14:41:17;20.43;;;5.83;;
1701;SDS011;848;48.354;10.064;2023-06-14T14:43:44;5.10;;;4.30;;
1701;SDS011;848;48.354;10.064;2023-06-14T14:46:12;3.77;;;3.43;;
1701;SDS011;848;48.354;10.064;2023-06-14T14:48:41;4.80;;;4.00;;
1701;SDS011;848;48.354;10.064;2023-06-14T14:51:08;5.10;;;4.57;;
1701;SDS011;848;48.354;10.064;2023-06-14T14:53:35;7.93;;;4.40;;
1701;SDS011;848;48.354;10.064;2023-06-14T14:56:02;8.83;;;4.30;;
1701;SDS011;848;48.354;10.064;2023-06-14T14:58:29;5.73;;;5.23;;
1701;SDS011;848;48.354;10.064;2023-06-14T15:00:56;4.63;;;4.07;;
1701;SDS011;848;48.354;10.064;2023-06-14T15:03:24;5.20;;;4.70;;
1701;SDS011;848;48.354;10.064;2023-06-14T15:05:51;5.30;;;4.30;;
1701;SDS011;848;48.354;10.064;2023-06-14T15:08:18;4.90;;;3.40;;
1701;SDS011;848;48.354;10.064;2023-06-14T15:10:46;6.63;;;4.17;;
1701;SDS011;848;48.354;10.064;2023-06-14T15:13:13;5.23;;;3.90;;
1701;SDS011;848;48.354;10.064;2023-06-14T15:15:40;7.10;;;4.07;;
1701;SDS011;848;48.354;10.064;2023-06-14T15:18:07;4.67;;;3.67;;
1701;SDS011;848;48.354;10.064;2023-06-14T15:20:36;4.93;;;4.03;;
1701;SDS011;848;48.354;10.064;2023-06-14T15:23:03;4.13;;;3.57;;
1701;SDS011;848;48.354;10.064;2023-06-14T15:25:30;5.57;;;3.97;;
1701;SDS011;848;48.354;10.064;2023-06-14T15:27:58;5.90;;;3.87;;
1701;SDS011;848;48.354;10.064;2023-06-14T15:30:26;6.27;;;4.10;;
1701;SDS011;848;48.354;10.064;2023-06-14T15:32:54;8.83;;;3.67;;